createdAt,value
2023-03-18T00:00:47.537Z,6.23
2023-03-18T00:03:14.848Z,6.63
2023-03-18T00:05:51.075Z,6.17
2023-03-18T00:08:21.665Z,7.17
2023-03-18T00:10:51.203Z,7.23
2023-03-18T00:13:19.872Z,6.77
2023-03-18T00:15:52.036Z,7.10
2023-03-18T00:18:19.491Z,6.50
2023-03-18T00:20:46.622Z,6.70
2023-03-18T00:23:13.610Z,6.47
2023-03-18T00:25:40.843Z,6.57
2023-03-18T00:28:10.565Z,7.43
2023-03-18T00:30:41.616Z,7.77
2023-03-18T00:33:11.161Z,7.47
2023-03-18T00:35:40.555Z,7.20
2023-03-18T00:38:10.898Z,7.17
2023-03-18T00:41:06.212Z,7.17
2023-03-18T00:43:36.188Z,6.43
2023-03-18T00:46:03.846Z,7.37
2023-03-18T00:48:30.527Z,7.20
2023-03-18T00:50:57.971Z,7.70
2023-03-18T00:53:26.180Z,7.67
2023-03-18T00:55:53.215Z,7.33
2023-03-18T00:58:20.253Z,8.00
2023-03-18T01:00:47.299Z,7.67
2023-03-18T01:03:14.992Z,7.50
2023-03-18T01:05:41.931Z,7.90
2023-03-18T01:08:09.594Z,8.17
2023-03-18T01:10:36.474Z,9.93
2023-03-18T01:13:03.478Z,8.40
2023-03-18T01:15:30.671Z,8.57
2023-03-18T01:17:58.454Z,8.53
2023-03-18T01:20:26.108Z,8.50
2023-03-18T01:22:54.972Z,8.47
2023-03-18T01:25:22.071Z,8.77
2023-03-18T01:27:52.795Z,8.83
2023-03-18T01:30:20.466Z,8.33
2023-03-18T01:32:47.991Z,8.97
2023-03-18T01:35:17.712Z,8.60
2023-03-18T01:37:46.881Z,9.07
2023-03-18T01:40:15.321Z,8.07
2023-03-18T01:42:49.739Z,8.80
2023-03-18T01:45:25.806Z,8.23
2023-03-18T01:47:56.241Z,9.77
2023-03-18T01:50:27.675Z,9.27
2023-03-18T01:53:01.969Z,9.57
2023-03-18T01:55:31.616Z,9.03
2023-03-18T01:57:58.950Z,9.57
2023-03-18T02:00:26.357Z,9.50
2023-03-18T02:02:54.601Z,9.60
2023-03-18T02:05:28.707Z,9.33
2023-03-18T02:07:55.780Z,9.47
2023-03-18T02:10:28.784Z,9.67
2023-03-18T02:13:08.872Z,9.33
2023-03-18T02:16:00.595Z,9.37
2023-03-18T02:18:38.969Z,9.50
2023-03-18T02:21:16.474Z,10.47
2023-03-18T02:23:59.374Z,9.80
2023-03-18T02:26:39.481Z,10.67
2023-03-18T02:29:07.897Z,9.83
2023-03-18T02:31:45.696Z,9.97
2023-03-18T02:34:13.012Z,9.97
2023-03-18T02:36:42.732Z,10.77
2023-03-18T02:39:14.347Z,11.17
2023-03-18T02:41:41.683Z,10.30
2023-03-18T02:44:08.927Z,9.97
2023-03-18T02:46:55.868Z,10.07
2023-03-18T02:49:24.500Z,10.70
2023-03-18T02:51:51.734Z,9.90
2023-03-18T02:54:22.724Z,10.30
2023-03-18T02:56:50.003Z,10.53
2023-03-18T02:59:17.804Z,10.40
2023-03-18T03:01:47.253Z,10.77
2023-03-18T03:04:16.817Z,10.20
2023-03-18T03:06:44.780Z,10.47
2023-03-18T03:09:15.546Z,10.20
2023-03-18T03:11:44.186Z,10.83
2023-03-18T03:14:15.804Z,10.80
2023-03-18T03:16:44.872Z,10.57
2023-03-18T03:19:12.143Z,9.87
2023-03-18T03:21:39.218Z,9.73
2023-03-18T03:24:07.692Z,9.90
2023-03-18T03:26:35.381Z,9.07
2023-03-18T03:29:04.452Z,9.90
2023-03-18T03:31:32.105Z,9.50
2023-03-18T03:33:59.732Z,9.00
2023-03-18T03:36:26.718Z,8.47
2023-03-18T03:38:56.713Z,8.57
2023-03-18T03:41:23.552Z,8.37
2023-03-18T03:43:51.049Z,8.77
2023-03-18T03:46:17.934Z,8.70
2023-03-18T03:48:45.435Z,7.43
2023-03-18T03:51:14.852Z,8.40
2023-03-18T03:53:42.083Z,8.17
2023-03-18T03:56:09.320Z,7.73
2023-03-18T03:58:36.512Z,7.83
2023-03-18T04:01:06.761Z,7.60
2023-03-18T04:03:33.968Z,7.63
2023-03-18T04:06:01.737Z,7.30
2023-03-18T04:08:31.753Z,7.43
2023-03-18T04:10:59.482Z,6.77
2023-03-18T04:13:26.389Z,6.90
2023-03-18T04:15:54.819Z,6.47
2023-03-18T04:18:21.657Z,6.57
2023-03-18T04:20:48.503Z,6.50
2023-03-18T04:23:24.794Z,6.83
2023-03-18T04:25:51.586Z,7.10
2023-03-18T04:28:18.575Z,6.63
2023-03-18T04:30:45.716Z,6.87
2023-03-18T04:33:16.982Z,6.90
2023-03-18T04:35:44.610Z,6.80
2023-03-18T04:38:13.692Z,7.20
2023-03-18T04:40:41.274Z,7.13
2023-03-18T04:43:08.013Z,7.53
2023-03-18T04:45:35.150Z,8.17
2023-03-18T04:48:04.185Z,7.43
2023-03-18T04:50:35.670Z,7.70
2023-03-18T04:53:03.654Z,7.70
2023-03-18T04:55:32.055Z,7.40
2023-03-18T04:58:01.008Z,8.07
2023-03-18T05:00:31.002Z,7.57
2023-03-18T05:03:12.073Z,8.20
2023-03-18T05:05:39.939Z,8.33
2023-03-18T05:08:09.683Z,8.13
2023-03-18T05:10:37.028Z,7.80
2023-03-18T05:13:03.803Z,8.93
2023-03-18T05:15:33.884Z,8.67
2023-03-18T05:18:01.809Z,7.90
2023-03-18T05:20:28.933Z,8.63
2023-03-18T05:22:55.987Z,8.37
2023-03-18T05:25:36.061Z,8.80
2023-03-18T05:28:02.968Z,8.30
2023-03-18T05:30:40.688Z,8.53
2023-03-18T05:33:12.053Z,8.73
2023-03-18T05:35:46.842Z,8.63
2023-03-18T05:38:14.897Z,9.03
2023-03-18T05:40:41.675Z,9.07
2023-03-18T05:43:16.973Z,8.90
2023-03-18T05:45:51.558Z,9.90
2023-03-18T05:48:22.422Z,10.00
2023-03-18T05:50:55.871Z,9.47
2023-03-18T05:53:25.852Z,9.67
2023-03-18T05:56:01.626Z,9.40
2023-03-18T05:58:31.668Z,9.60
2023-03-18T06:01:14.759Z,9.53
2023-03-18T06:03:42.822Z,9.00
2023-03-18T06:06:10.248Z,9.57
2023-03-18T06:08:39.412Z,10.17
2023-03-18T06:11:06.780Z,9.63
2023-03-18T06:13:34.582Z,9.60
2023-03-18T06:16:02.163Z,9.40
2023-03-18T06:18:30.202Z,8.87
2023-03-18T06:20:57.329Z,8.17
2023-03-18T06:23:24.263Z,8.70
2023-03-18T06:25:51.434Z,9.07
2023-03-18T06:28:22.468Z,8.80
2023-03-18T06:30:49.415Z,8.43
2023-03-18T06:33:16.568Z,8.47
2023-03-18T06:35:44.354Z,9.00
2023-03-18T06:38:14.582Z,8.50
2023-03-18T06:40:42.423Z,8.10
2023-03-18T06:43:09.313Z,8.10
2023-03-18T06:45:38.473Z,7.73
2023-03-18T06:48:08.524Z,7.97
2023-03-18T06:50:39.700Z,8.33
2023-03-18T06:53:12.748Z,7.67
2023-03-18T06:55:39.950Z,6.93
2023-03-18T06:58:08.150Z,7.17
2023-03-18T07:00:45.597Z,7.37
2023-03-18T07:03:18.918Z,7.17
2023-03-18T07:05:45.771Z,7.00
2023-03-18T07:08:12.706Z,6.70
2023-03-18T07:10:40.903Z,6.87
2023-03-18T07:13:11.295Z,7.13
2023-03-18T07:15:39.971Z,6.70
2023-03-18T07:18:10.884Z,6.77
2023-03-18T07:20:39.137Z,7.03
2023-03-18T07:23:06.650Z,6.67
2023-03-18T07:25:34.384Z,6.63
2023-03-18T07:28:01.342Z,6.50
2023-03-18T07:30:28.969Z,6.40
2023-03-18T07:32:56.185Z,5.50
2023-03-18T07:35:23.834Z,6.30
2023-03-18T07:37:51.477Z,5.67
2023-03-18T07:40:18.448Z,5.70
2023-03-18T07:42:46.008Z,6.00
2023-03-18T07:45:13.160Z,6.00
2023-03-18T07:47:40.001Z,5.00
2023-03-18T07:50:07.743Z,4.23
2023-03-18T07:52:34.555Z,4.27
2023-03-18T07:55:02.859Z,4.00
2023-03-18T07:57:29.691Z,4.37
2023-03-18T07:59:56.880Z,3.90
2023-03-18T08:02:23.752Z,4.50
2023-03-18T08:04:52.046Z,4.33
2023-03-18T08:07:19.439Z,4.30
2023-03-18T08:09:46.288Z,4.23
2023-03-18T08:12:13.319Z,4.73
2023-03-18T08:14:40.114Z,4.83
2023-03-18T08:17:06.928Z,4.33
2023-03-18T08:19:35.018Z,4.33
2023-03-18T08:22:02.223Z,4.43
2023-03-18T08:24:30.187Z,4.57
2023-03-18T08:26:57.061Z,4.73
2023-03-18T08:29:24.327Z,4.30
2023-03-18T08:31:51.436Z,4.13
2023-03-18T08:34:18.249Z,3.93
2023-03-18T08:36:45.262Z,4.30
2023-03-18T08:39:12.410Z,4.60
2023-03-18T08:41:40.356Z,3.83
2023-03-18T08:44:08.564Z,3.93
2023-03-18T08:46:35.682Z,3.70
2023-03-18T08:49:02.649Z,3.93
2023-03-18T08:51:29.825Z,3.67
2023-03-18T08:53:56.625Z,3.43
2023-03-18T08:56:24.059Z,3.80
2023-03-18T08:58:51.131Z,3.37
2023-03-18T09:01:19.942Z,3.30
2023-03-18T09:03:47.042Z,3.07
2023-03-18T09:06:17.990Z,3.30
2023-03-18T09:08:44.952Z,2.90
2023-03-18T09:11:12.284Z,2.60
2023-03-18T09:13:39.418Z,3.10
2023-03-18T09:16:07.348Z,2.40
2023-03-18T09:18:35.494Z,3.13
2023-03-18T09:21:03.257Z,3.20
2023-03-18T09:23:30.235Z,3.00
2023-03-18T09:25:57.353Z,2.77
2023-03-18T09:28:24.154Z,2.60
2023-03-18T09:30:51.499Z,2.73
2023-03-18T09:33:19.204Z,2.90
2023-03-18T09:35:46.061Z,2.33
2023-03-18T09:38:18.039Z,2.90
2023-03-18T09:40:56.137Z,2.90
2023-03-18T09:44:01.119Z,3.10
2023-03-18T09:47:07.336Z,2.40
2023-03-18T09:49:39.074Z,2.70
2023-03-18T09:52:13.961Z,2.60
2023-03-18T09:54:44.809Z,3.00
2023-03-18T09:57:18.955Z,3.13
2023-03-18T10:00:09.273Z,2.57
2023-03-18T10:02:49.973Z,2.67
2023-03-18T10:05:20.669Z,2.40
2023-03-18T10:07:51.769Z,2.50
2023-03-18T10:10:28.038Z,2.20
2023-03-18T10:13:14.052Z,2.57
2023-03-18T10:15:43.321Z,2.50
2023-03-18T10:18:19.024Z,3.13
2023-03-18T10:21:07.250Z,2.30
2023-03-18T10:24:02.188Z,2.00
2023-03-18T10:26:37.603Z,2.13
2023-03-18T10:29:19.371Z,2.17
2023-03-18T10:32:08.309Z,2.00
2023-03-18T10:35:04.330Z,2.20
2023-03-18T10:37:41.673Z,2.30
2023-03-18T10:40:18.209Z,1.90
2023-03-18T10:42:45.605Z,2.60
2023-03-18T10:45:21.961Z,2.37
2023-03-18T10:47:56.539Z,2.07
2023-03-18T10:50:29.803Z,2.10
2023-03-18T10:53:07.308Z,1.70
2023-03-18T10:55:49.577Z,1.83
2023-03-18T10:58:19.503Z,1.70
2023-03-18T11:00:46.650Z,1.70
2023-03-18T11:03:21.048Z,1.80
2023-03-18T11:05:54.948Z,1.60
2023-03-18T11:08:39.872Z,1.50
2023-03-18T11:11:27.449Z,1.67
2023-03-18T11:13:57.093Z,1.83
2023-03-18T11:16:31.871Z,1.77
2023-03-18T11:18:59.055Z,1.50
2023-03-18T11:21:26.596Z,1.53
2023-03-18T11:24:08.831Z,1.40
2023-03-18T11:26:56.010Z,1.67
2023-03-18T11:29:27.063Z,1.50
2023-03-18T11:31:58.506Z,1.50
2023-03-18T11:34:27.249Z,1.70
2023-03-18T11:37:01.104Z,1.80
2023-03-18T11:39:30.928Z,1.57
2023-03-18T11:42:00.164Z,2.30
2023-03-18T11:44:33.880Z,2.60
2023-03-18T11:47:09.205Z,1.70
2023-03-18T11:49:36.856Z,1.63
2023-03-18T11:52:39.869Z,1.80
2023-03-18T11:55:51.793Z,1.90
2023-03-18T11:58:46.702Z,1.77
2023-03-18T12:01:25.474Z,2.07
2023-03-18T12:04:10.703Z,1.60
2023-03-18T12:06:51.971Z,1.63
2023-03-18T12:09:39.317Z,1.60
2023-03-18T12:12:15.917Z,1.50
2023-03-18T12:15:01.101Z,2.00
2023-03-18T12:17:59.722Z,2.10
2023-03-18T12:20:36.542Z,1.70
2023-03-18T12:23:06.402Z,1.70
2023-03-18T12:25:50.782Z,1.80
2023-03-18T12:28:55.735Z,1.80
2023-03-18T12:31:45.527Z,1.80
2023-03-18T12:34:30.545Z,1.50
2023-03-18T12:37:14.042Z,2.13
2023-03-18T12:40:04.803Z,1.70
2023-03-18T12:42:53.611Z,1.40
2023-03-18T12:45:25.066Z,1.40
2023-03-18T12:48:00.857Z,1.50
2023-03-18T12:50:34.759Z,1.43
2023-03-18T12:53:28.958Z,1.60
2023-03-18T12:55:59.322Z,1.50
2023-03-18T12:58:29.349Z,1.50
2023-03-18T13:01:19.364Z,1.60
2023-03-18T13:03:55.578Z,1.10
2023-03-18T13:06:38.295Z,1.50
2023-03-18T13:09:22.544Z,1.20
2023-03-18T13:12:07.437Z,1.40
2023-03-18T13:14:46.384Z,1.40
2023-03-18T13:17:38.861Z,1.43
2023-03-18T13:20:20.923Z,1.00
2023-03-18T13:22:52.062Z,1.30
2023-03-18T13:25:48.507Z,1.20
2023-03-18T13:28:18.488Z,1.10
2023-03-18T13:31:21.558Z,0.70
2023-03-18T13:34:05.013Z,1.27
2023-03-18T13:37:13.355Z,1.10
2023-03-18T13:39:56.802Z,1.23
2023-03-18T13:42:30.369Z,1.10
2023-03-18T13:44:59.065Z,1.10
2023-03-18T13:47:30.240Z,1.20
2023-03-18T13:50:04.924Z,1.17
2023-03-18T13:52:40.670Z,1.20
2023-03-18T13:55:26.117Z,1.20
2023-03-18T13:58:18.910Z,1.13
2023-03-18T14:01:15.460Z,1.03
2023-03-18T14:03:42.434Z,1.17
2023-03-18T14:06:09.118Z,1.17
2023-03-18T14:08:38.904Z,1.33
2023-03-18T14:11:19.753Z,2.03
2023-03-18T14:13:51.418Z,0.90
2023-03-18T14:16:23.228Z,1.10
2023-03-18T14:18:57.698Z,3.23
2023-03-18T14:21:29.265Z,1.40
2023-03-18T14:24:16.191Z,1.50
2023-03-18T14:27:07.509Z,1.13
2023-03-18T14:29:37.378Z,1.20
2023-03-18T14:32:29.423Z,1.27
2023-03-18T14:34:59.418Z,1.10
2023-03-18T14:37:32.658Z,1.20
2023-03-18T14:40:18.526Z,1.50
2023-03-18T14:42:53.802Z,1.30
2023-03-18T14:45:28.069Z,1.23
2023-03-18T14:47:56.733Z,1.03
2023-03-18T14:50:41.008Z,1.27
2023-03-18T14:53:15.341Z,1.53
2023-03-18T14:55:42.584Z,1.27
2023-03-18T14:58:20.538Z,0.93
2023-03-18T15:00:54.160Z,1.10
2023-03-18T15:03:31.297Z,0.90
2023-03-18T15:06:00.974Z,1.40
2023-03-18T15:08:47.897Z,1.03
2023-03-18T15:11:16.545Z,1.10
2023-03-18T15:13:44.972Z,1.10
2023-03-18T15:16:15.327Z,1.17
2023-03-18T15:18:43.638Z,1.40
2023-03-18T15:21:17.856Z,1.33
2023-03-18T15:23:48.178Z,1.67
2023-03-18T15:26:24.693Z,1.20
2023-03-18T15:28:57.732Z,1.00
2023-03-18T15:31:32.428Z,1.30
2023-03-18T15:34:14.481Z,1.30
2023-03-18T15:36:43.764Z,1.00
2023-03-18T15:39:30.040Z,1.23
2023-03-18T15:41:58.654Z,1.13
2023-03-18T15:44:27.667Z,1.47
2023-03-18T15:46:56.582Z,1.40
2023-03-18T15:49:27.738Z,1.30
2023-03-18T15:51:59.491Z,3.67
2023-03-18T15:54:39.168Z,1.20
2023-03-18T15:57:14.587Z,1.20
2023-03-18T15:59:41.368Z,1.40
2023-03-18T16:02:15.686Z,1.10
2023-03-18T16:04:44.361Z,1.27
2023-03-18T16:07:19.552Z,1.13
2023-03-18T16:09:46.336Z,1.40
2023-03-18T16:12:21.893Z,3.30
2023-03-18T16:14:49.884Z,1.30
2023-03-18T16:17:21.074Z,1.07
2023-03-18T16:19:53.879Z,1.17
2023-03-18T16:22:21.057Z,1.53
2023-03-18T16:24:49.297Z,1.10
2023-03-18T16:27:44.587Z,1.10
2023-03-18T16:30:20.403Z,1.00
2023-03-18T16:32:47.416Z,1.30
2023-03-18T16:35:19.515Z,0.77
2023-03-18T16:37:48.019Z,0.93
2023-03-18T16:40:17.289Z,1.10
2023-03-18T16:42:45.008Z,1.00
2023-03-18T16:45:22.642Z,1.07
2023-03-18T16:47:51.087Z,1.47
2023-03-18T16:50:22.557Z,1.20
2023-03-18T16:52:50.474Z,1.30
2023-03-18T16:55:19.382Z,1.00
2023-03-18T16:58:06.902Z,1.27
2023-03-18T17:00:34.042Z,1.87
2023-03-18T17:03:01.898Z,1.83
2023-03-18T17:05:29.266Z,1.57
2023-03-18T17:07:56.172Z,1.40
2023-03-18T17:10:26.163Z,1.30
2023-03-18T17:12:57.275Z,1.47
2023-03-18T17:15:27.568Z,1.63
2023-03-18T17:17:58.135Z,1.37
2023-03-18T17:20:27.066Z,1.30
2023-03-18T17:22:54.261Z,1.33
2023-03-18T17:25:21.918Z,1.20
2023-03-18T17:27:51.955Z,1.53
2023-03-18T17:30:29.457Z,1.17
2023-03-18T17:32:59.296Z,1.70
2023-03-18T17:35:26.207Z,1.47
2023-03-18T17:37:54.540Z,1.50
2023-03-18T17:40:23.137Z,1.83
2023-03-18T17:42:51.268Z,1.40
2023-03-18T17:45:32.457Z,1.57
2023-03-18T17:48:22.200Z,1.40
2023-03-18T17:50:51.055Z,1.30
2023-03-18T17:53:27.028Z,0.90
2023-03-18T17:55:54.740Z,1.53
2023-03-18T17:58:23.938Z,1.37
2023-03-18T18:00:51.985Z,0.63
2023-03-18T18:03:22.108Z,0.70
2023-03-18T18:05:48.878Z,0.43
2023-03-18T18:08:17.779Z,0.50
2023-03-18T18:10:47.461Z,0.50
2023-03-18T18:13:18.108Z,0.80
2023-03-18T18:15:46.278Z,1.30
2023-03-18T18:18:23.986Z,0.70
2023-03-18T18:21:02.174Z,0.60
2023-03-18T18:23:31.910Z,0.80
2023-03-18T18:26:00.857Z,2.50
2023-03-18T18:28:39.313Z,1.60
2023-03-18T18:31:09.287Z,1.00
2023-03-18T18:33:37.564Z,0.80
2023-03-18T18:36:05.953Z,0.87
2023-03-18T18:38:33.100Z,0.90
2023-03-18T18:41:00.243Z,0.80
2023-03-18T18:43:27.636Z,1.00
2023-03-18T18:45:56.192Z,1.60
2023-03-18T18:48:34.183Z,1.00
2023-03-18T18:51:02.065Z,1.40
2023-03-18T18:53:31.204Z,1.40
2023-03-18T18:56:00.214Z,1.10
2023-03-18T18:58:29.475Z,1.07
2023-03-18T19:00:57.469Z,1.20
2023-03-18T19:03:26.132Z,1.30
2023-03-18T19:05:55.940Z,1.27
2023-03-18T19:08:25.141Z,0.97
2023-03-18T19:10:56.620Z,0.97
2023-03-18T19:13:29.464Z,1.10
2023-03-18T19:15:58.912Z,0.97
2023-03-18T19:18:28.044Z,0.93
2023-03-18T19:20:54.997Z,1.20
2023-03-18T19:23:27.995Z,1.20
2023-03-18T19:25:56.286Z,1.70
2023-03-18T19:28:47.808Z,3.67
2023-03-18T19:31:24.523Z,3.53
2023-03-18T19:33:52.152Z,3.30
2023-03-18T19:36:39.267Z,3.70
2023-03-18T19:39:07.242Z,3.07
2023-03-18T19:41:33.935Z,3.43
2023-03-18T19:44:21.128Z,3.43
2023-03-18T19:46:49.338Z,3.03
2023-03-18T19:49:39.311Z,2.33
2023-03-18T19:52:21.021Z,2.00
2023-03-18T19:54:48.455Z,2.40
2023-03-18T19:57:23.372Z,1.90
2023-03-18T19:59:51.478Z,2.00
2023-03-18T20:02:34.426Z,1.73
2023-03-18T20:05:04.388Z,2.00
2023-03-18T20:07:32.712Z,2.33
2023-03-18T20:09:59.864Z,3.03
2023-03-18T20:12:32.853Z,3.67
2023-03-18T20:14:59.790Z,4.00
2023-03-18T20:17:36.732Z,4.33
2023-03-18T20:20:04.222Z,5.23
2023-03-18T20:22:37.066Z,5.93
2023-03-18T20:25:05.581Z,5.80
2023-03-18T20:27:32.617Z,6.10
2023-03-18T20:30:00.345Z,7.57
2023-03-18T20:32:27.290Z,7.17
2023-03-18T20:34:54.119Z,7.30
2023-03-18T20:37:32.070Z,8.53
2023-03-18T20:39:58.960Z,9.10
2023-03-18T20:42:25.999Z,10.47
2023-03-18T20:44:52.969Z,7.90
2023-03-18T20:47:19.663Z,5.63
2023-03-18T20:49:47.690Z,4.13
2023-03-18T20:52:24.585Z,1.83
2023-03-18T20:54:51.704Z,1.63
2023-03-18T20:57:19.296Z,1.80
2023-03-18T20:59:49.412Z,1.50
2023-03-18T21:02:27.468Z,2.00
2023-03-18T21:04:56.475Z,1.70
2023-03-18T21:07:23.340Z,1.67
2023-03-18T21:09:50.152Z,1.33
2023-03-18T21:12:18.316Z,1.70
2023-03-18T21:14:46.290Z,1.70
2023-03-18T21:17:21.569Z,1.70
2023-03-18T21:19:49.124Z,2.17
2023-03-18T21:22:20.880Z,3.37
2023-03-18T21:24:48.622Z,1.80
2023-03-18T21:27:26.597Z,1.97
2023-03-18T21:29:55.135Z,1.63
2023-03-18T21:32:24.833Z,1.57
2023-03-18T21:34:52.677Z,1.30
2023-03-18T21:37:21.396Z,1.47
2023-03-18T21:39:49.291Z,1.87
2023-03-18T21:42:26.304Z,1.20
2023-03-18T21:44:56.100Z,1.20
2023-03-18T21:47:24.801Z,1.10
2023-03-18T21:49:51.681Z,0.80
2023-03-18T21:52:21.033Z,1.00
2023-03-18T21:54:47.898Z,1.20
2023-03-18T21:57:17.088Z,1.37
2023-03-18T21:59:44.715Z,1.10
2023-03-18T22:02:34.048Z,1.30
2023-03-18T22:05:03.843Z,1.47
2023-03-18T22:07:31.613Z,1.43
2023-03-18T22:09:58.772Z,1.30
2023-03-18T22:12:33.077Z,1.70
2023-03-18T22:15:00.581Z,1.60
2023-03-18T22:17:28.366Z,1.80
2023-03-18T22:19:56.653Z,1.77
2023-03-18T22:22:26.251Z,1.80
2023-03-18T22:24:54.204Z,1.90
2023-03-18T22:27:24.319Z,2.10
2023-03-18T22:29:52.538Z,2.27
2023-03-18T22:32:40.975Z,2.27
2023-03-18T22:35:18.531Z,1.97
2023-03-18T22:37:46.065Z,2.57
2023-03-18T22:40:20.033Z,2.43
2023-03-18T22:43:00.117Z,2.80
2023-03-18T22:45:33.939Z,2.50
2023-03-18T22:48:03.345Z,2.53
2023-03-18T22:50:31.588Z,2.73
2023-03-18T22:53:04.073Z,2.17
2023-03-18T22:55:38.788Z,2.60
2023-03-18T22:58:05.968Z,2.60
2023-03-18T23:00:38.810Z,2.60
2023-03-18T23:03:21.635Z,2.90
2023-03-18T23:05:53.797Z,2.63
2023-03-18T23:08:21.785Z,2.30
2023-03-18T23:10:50.163Z,2.80
2023-03-18T23:13:41.803Z,2.97
2023-03-18T23:16:14.054Z,3.00
2023-03-18T23:18:40.913Z,2.73
2023-03-18T23:21:11.572Z,2.80
2023-03-18T23:23:38.333Z,3.03
2023-03-18T23:26:05.205Z,2.63
2023-03-18T23:28:36.296Z,3.13
2023-03-18T23:31:08.225Z,2.93
2023-03-18T23:33:35.053Z,2.40
2023-03-18T23:36:02.081Z,2.70
2023-03-18T23:38:28.798Z,2.30
2023-03-18T23:40:55.597Z,2.70
2023-03-18T23:43:22.263Z,2.80
2023-03-18T23:45:49.193Z,2.47
2023-03-18T23:48:16.060Z,2.40
2023-03-18T23:50:42.818Z,2.70
2023-03-18T23:53:09.609Z,2.67
2023-03-18T23:55:36.454Z,2.90
2023-03-18T23:58:03.474Z,2.43
